Time;durP1;ratioP1;P1;durP2;ratioP2;P2;SDS_P1;SDS_P2;PMS_P1;PMS_P2;Temp;Humidity;BMP_temperature;BMP_pressure;BME280_temperature;BME280_humidity;BME280_pressure;Samples;Min_cycle;Max_cycle;Signal;HPM_P1;HPM_P2
2023/06/09 00:01:44;;;;;;;5.00;2.50;;;;;22.30;101421.00;;;;5086379;28;20708;-78
2023/06/09 00:04:13;;;;;;;5.07;2.13;;;;;22.20;101420.00;;;;5086744;28;20205;-77
2023/06/09 00:06:43;;;;;;;5.85;1.92;;;;;22.20;101421.00;;;;5086737;28;20288;-78
2023/06/09 00:09:10;;;;;;;3.28;1.50;;;;;22.10;101419.00;;;;5078112;28;20197;-78
2023/06/09 00:11:38;;;;;;;7.55;2.75;;;;;22.10;101410.00;;;;5080891;28;20205;-78
2023/06/09 00:14:05;;;;;;;5.47;2.30;;;;;22.00;101416.00;;;;5083549;28;20229;-77
2023/06/09 00:16:33;;;;;;;3.75;1.75;;;;;22.00;101414.00;;;;5085441;28;20190;-78
2023/06/09 00:19:03;;;;;;;5.68;2.17;;;;;22.00;101411.00;;;;5082227;28;20198;-77
2023/06/09 00:21:31;;;;;;;6.32;2.50;;;;;21.90;101403.00;;;;5086521;28;20209;-77
2023/06/09 00:23:59;;;;;;;3.15;1.90;;;;;21.90;101412.00;;;;5086956;28;20587;-78
2023/06/09 00:26:26;;;;;;;8.18;2.13;;;;;21.90;101405.00;;;;5086983;28;20202;-78
2023/06/09 00:28:53;;;;;;;4.18;1.80;;;;;21.80;101413.00;;;;5079148;28;20194;-78
2023/06/09 00:31:21;;;;;;;6.55;2.25;;;;;21.80;101409.00;;;;5086595;28;20201;-77
2023/06/09 00:33:48;;;;;;;5.32;2.45;;;;;21.80;101416.00;;;;5078802;28;20237;-78
2023/06/09 00:36:15;;;;;;;5.20;2.15;;;;;21.80;101404.00;;;;5088738;28;20190;-77
2023/06/09 00:38:44;;;;;;;5.60;2.10;;;;;21.70;101405.00;;;;5083065;28;20202;-77
2023/06/09 00:41:11;;;;;;;4.53;2.30;;;;;21.70;101413.00;;;;5090148;28;20209;-77
2023/06/09 00:43:39;;;;;;;5.65;2.10;;;;;21.70;101397.00;;;;5089882;28;20206;-78
2023/06/09 00:46:06;;;;;;;2.30;1.60;;;;;21.70;101397.00;;;;5088534;28;20193;-78
2023/06/09 00:48:36;;;;;;;4.93;2.30;;;;;21.70;101404.00;;;;5090532;28;20191;-77
2023/06/09 00:51:03;;;;;;;6.57;2.15;;;;;21.60;101397.00;;;;5088845;28;20198;-78
2023/06/09 00:53:31;;;;;;;6.75;2.35;;;;;21.60;101395.00;;;;5089163;28;20224;-77
2023/06/09 00:56:00;;;;;;;5.35;2.15;;;;;21.60;101393.00;;;;5091208;28;20212;-78
2023/06/09 00:58:28;;;;;;;6.63;2.70;;;;;21.60;101391.00;;;;5090425;28;20217;-77
2023/06/09 01:00:57;;;;;;;5.53;2.33;;;;;21.50;101396.00;;;;5090705;28;20226;-77
2023/06/09 01:03:26;;;;;;;5.50;2.53;;;;;21.50;101390.00;;;;5090026;28;20187;-78
2023/06/09 01:06:03;;;;;;;3.53;1.92;;;;;21.50;101399.00;;;;5088518;28;20211;-77
2023/06/09 01:08:35;;;;;;;6.45;2.13;;;;;21.50;101400.00;;;;5090742;28;20726;-78
2023/06/09 01:11:12;;;;;;;5.28;2.13;;;;;21.40;101397.00;;;;5088512;28;20189;-77
2023/06/09 01:14:01;;;;;;;7.18;2.17;;;;;21.40;101389.00;;;;5088764;28;20244;-78
2023/06/09 01:16:33;;;;;;;3.30;2.15;;;;;21.40;101392.00;;;;5090378;28;20214;-77
2023/06/09 01:19:05;;;;;;;4.63;1.95;;;;;21.40;101392.00;;;;5088801;28;20202;-77
2023/06/09 01:21:40;;;;;;;3.97;2.45;;;;;21.30;101390.00;;;;5088050;28;20229;-77
2023/06/09 01:24:21;;;;;;;4.63;2.30;;;;;21.30;101398.00;;;;5081514;28;20201;-77
2023/06/09 01:26:51;;;;;;;6.80;2.33;;;;;21.30;101393.00;;;;5090467;28;20198;-77
2023/06/09 01:29:21;;;;;;;10.65;2.22;;;;;21.30;101397.00;;;;5082787;28;20690;-76
2023/06/09 01:31:50;;;;;;;4.07;2.28;;;;;21.30;101391.00;;;;5088210;28;20194;-77
2023/06/09 01:34:18;;;;;;;4.85;1.92;;;;;21.30;101392.00;;;;5088963;28;20238;-77
2023/06/09 01:36:47;;;;;;;5.22;2.40;;;;;21.30;101397.00;;;;5088585;28;20205;-77
2023/06/09 01:39:15;;;;;;;6.15;2.33;;;;;21.30;101397.00;;;;5090577;28;20194;-77
2023/06/09 01:41:43;;;;;;;4.82;2.33;;;;;21.20;101394.00;;;;5086098;28;20190;-77
2023/06/09 01:44:11;;;;;;;3.78;2.10;;;;;21.20;101394.00;;;;5087004;28;20198;-77
2023/06/09 01:46:39;;;;;;;4.20;1.95;;;;;21.20;101396.00;;;;5087019;28;20214;-77
2023/06/09 01:49:11;;;;;;;9.23;2.30;;;;;21.20;101392.00;;;;5088881;28;20206;-77
2023/06/09 01:51:45;;;;;;;4.18;2.90;;;;;21.10;101387.00;;;;5087483;28;20578;-77
2023/06/09 01:54:17;;;;;;;3.85;1.98;;;;;21.10;101387.00;;;;5083800;28;20215;-77
2023/06/09 01:56:47;;;;;;;7.47;2.22;;;;;21.10;101381.00;;;;5083591;28;20203;-77
2023/06/09 01:59:21;;;;;;;8.52;2.35;;;;;21.10;101380.00;;;;5084916;28;20201;-77
2023/06/09 02:01:50;;;;;;;5.05;1.95;;;;;21.10;101382.00;;;;5078739;28;20221;-77
2023/06/09 02:04:22;;;;;;;9.13;2.55;;;;;21.10;101374.00;;;;5083435;28;20206;-78
2023/06/09 02:06:51;;;;;;;8.88;2.60;;;;;21.00;101375.00;;;;5088533;28;20884;-77
2023/06/09 02:09:18;;;;;;;3.28;2.08;;;;;21.00;101381.00;;;;5089636;28;20227;-78
2023/06/09 02:11:52;;;;;;;5.45;2.78;;;;;20.90;101369.00;;;;5086011;28;20209;-78
2023/06/09 02:14:21;;;;;;;4.72;2.08;;;;;21.00;101363.00;;;;5087669;28;20222;-77
2023/06/09 02:16:48;;;;;;;3.95;1.92;;;;;20.90;101356.00;;;;5086272;28;20194;-77
2023/06/09 02:19:16;;;;;;;6.85;1.85;;;;;20.90;101350.00;;;;5089228;28;20198;-77
2023/06/09 02:21:44;;;;;;;7.18;2.20;;;;;20.90;101359.00;;;;5086961;28;20214;-77
2023/06/09 02:24:11;;;;;;;4.28;1.90;;;;;20.90;101352.00;;;;5087538;28;20225;-77
2023/06/09 02:26:38;;;;;;;4.60;1.90;;;;;20.80;101352.00;;;;5088280;28;20198;-77
2023/06/09 02:29:06;;;;;;;6.85;2.42;;;;;20.80;101357.00;;;;5088918;28;20229;-76
2023/06/09 02:31:36;;;;;;;4.55;1.95;;;;;20.80;101361.00;;;;5087994;28;20669;-77
2023/06/09 02:34:03;;;;;;;3.47;2.08;;;;;20.80;101359.00;;;;5085900;28;20237;-76
2023/06/09 02:36:31;;;;;;;3.55;2.00;;;;;20.70;101366.00;;;;5086718;28;20206;-77
2023/06/09 02:38:58;;;;;;;5.15;2.30;;;;;20.70;101366.00;;;;5089190;28;20209;-77
2023/06/09 02:41:26;;;;;;;4.00;2.00;;;;;20.70;101360.00;;;;5088279;28;20602;-77
2023/06/09 02:43:54;;;;;;;7.25;2.33;;;;;20.70;101366.00;;;;5085796;28;20190;-77
2023/06/09 02:46:22;;;;;;;4.45;1.92;;;;;20.60;101361.00;;;;5081810;28;20194;-77
2023/06/09 02:48:50;;;;;;;7.53;1.83;;;;;20.60;101362.00;;;;5085943;28;20626;-77
2023/06/09 02:51:18;;;;;;;8.25;2.03;;;;;20.60;101357.00;;;;5080399;28;20209;-77
2023/06/09 02:53:45;;;;;;;4.22;2.10;;;;;20.60;101369.00;;;;5083772;28;20794;-76
2023/06/09 02:56:13;;;;;;;5.35;2.40;;;;;20.50;101363.00;;;;5084613;28;20201;-77
2023/06/09 02:58:41;;;;;;;6.43;2.05;;;;;20.50;101371.00;;;;5086773;28;20217;-77
2023/06/09 03:01:08;;;;;;;5.78;2.45;;;;;20.50;101362.00;;;;5088144;28;20218;-77
2023/06/09 03:03:38;;;;;;;6.20;2.67;;;;;20.50;101365.00;;;;5086508;28;20745;-77
2023/06/09 03:06:09;;;;;;;5.88;2.38;;;;;20.40;101364.00;;;;5087329;28;20198;-77
2023/06/09 03:08:37;;;;;;;4.80;1.92;;;;;20.50;101366.00;;;;5085877;28;20213;-77
2023/06/09 03:11:04;;;;;;;4.80;2.45;;;;;20.40;101360.00;;;;5088972;28;20190;-77
2023/06/09 03:13:32;;;;;;;4.00;2.22;;;;;20.40;101350.00;;;;5087199;28;20222;-77
2023/06/09 03:15:59;;;;;;;3.95;2.17;;;;;20.40;101355.00;;;;5088485;28;20186;-76
2023/06/09 03:18:27;;;;;;;6.10;2.17;;;;;20.40;101365.00;;;;5085341;28;20255;-77
2023/06/09 03:20:55;;;;;;;2.83;1.92;;;;;20.30;101363.00;;;;5076990;28;20219;-77
2023/06/09 03:23:24;;;;;;;4.22;2.45;;;;;20.30;101364.00;;;;5083016;28;20199;-77
2023/06/09 03:25:51;;;;;;;4.90;2.33;;;;;20.30;101367.00;;;;5087939;28;20191;-77
2023/06/09 03:28:19;;;;;;;4.57;2.35;;;;;20.30;101363.00;;;;5088099;28;20721;-76
2023/06/09 03:30:47;;;;;;;8.85;2.58;;;;;20.30;101366.00;;;;5087610;28;20628;-77
2023/06/09 03:33:14;;;;;;;3.75;2.22;;;;;20.30;101366.00;;;;5080595;28;20233;-77
2023/06/09 03:35:42;;;;;;;3.42;1.90;;;;;20.20;101363.00;;;;5085324;28;20217;-77
2023/06/09 03:38:09;;;;;;;6.22;2.70;;;;;20.20;101364.00;;;;5087717;28;20198;-76
2023/06/09 03:40:38;;;;;;;6.57;2.28;;;;;20.20;101366.00;;;;5086238;28;20194;-77
2023/06/09 03:43:07;;;;;;;7.78;2.80;;;;;20.20;101366.00;;;;5086873;28;20695;-77
2023/06/09 03:45:35;;;;;;;8.15;2.33;;;;;20.20;101355.00;;;;5088462;28;20236;-77
2023/06/09 03:48:04;;;;;;;4.82;1.92;;;;;20.20;101361.00;;;;5079764;28;20197;-77
2023/06/09 03:50:31;;;;;;;5.63;2.40;;;;;20.10;101364.00;;;;5086816;28;20480;-78
2023/06/09 03:53:00;;;;;;;4.30;2.35;;;;;20.10;101365.00;;;;5082094;28;20198;-77
2023/06/09 03:55:31;;;;;;;4.57;2.13;;;;;20.10;101367.00;;;;5087583;28;20217;-77
2023/06/09 03:57:59;;;;;;;6.03;2.28;;;;;20.10;101367.00;;;;5087187;28;20218;-76
2023/06/09 04:00:27;;;;;;;6.22;2.75;;;;;20.10;101360.00;;;;5087333;28;20225;-77
2023/06/09 04:02:54;;;;;;;8.23;3.15;;;;;20.10;101358.00;;;;5086574;28;20660;-78
2023/06/09 04:05:22;;;;;;;5.45;2.28;;;;;20.10;101363.00;;;;5087138;28;20199;-76
2023/06/09 04:07:49;;;;;;;5.90;2.88;;;;;20.10;101369.00;;;;5086462;28;20198;-76
2023/06/09 04:10:18;;;;;;;4.60;2.50;;;;;20.00;101364.00;;;;5086679;28;20198;-77
2023/06/09 04:12:45;;;;;;;6.43;2.38;;;;;20.00;101359.00;;;;5086616;28;20708;-76
2023/06/09 04:15:14;;;;;;;5.43;2.13;;;;;20.00;101365.00;;;;5080252;28;20217;-77
2023/06/09 04:17:41;;;;;;;7.38;2.72;;;;;20.00;101365.00;;;;5084733;28;20209;-77
2023/06/09 04:20:09;;;;;;;5.07;2.30;;;;;20.00;101373.00;;;;5084634;28;20194;-77
2023/06/09 04:22:36;;;;;;;4.50;2.28;;;;;20.00;101362.00;;;;5086550;28;20198;-77
2023/06/09 04:25:04;;;;;;;5.18;2.38;;;;;20.00;101364.00;;;;5086063;28;20202;-77
2023/06/09 04:27:32;;;;;;;6.05;2.25;;;;;20.00;101367.00;;;;5085466;28;20190;-77
2023/06/09 04:29:59;;;;;;;4.97;1.88;;;;;20.10;101373.00;;;;5087312;28;20198;-78
2023/06/09 04:32:32;;;;;;;4.57;2.22;;;;;20.10;101376.00;;;;5085434;28;20213;-77
2023/06/09 04:34:59;;;;;;;6.63;2.28;;;;;20.10;101370.00;;;;5083571;28;20233;-77
2023/06/09 04:37:27;;;;;;;8.50;2.13;;;;;20.10;101366.00;;;;5086737;28;20656;-77
2023/06/09 04:39:55;;;;;;;6.53;2.47;;;;;20.10;101369.00;;;;5084295;28;20198;-76
2023/06/09 04:42:24;;;;;;;6.72;2.60;;;;;20.10;101372.00;;;;5086248;28;20194;-77
2023/06/09 04:44:53;;;;;;;5.88;2.83;;;;;20.20;101379.00;;;;5087635;28;20213;-77
2023/06/09 04:47:24;;;;;;;5.55;2.63;;;;;20.20;101376.00;;;;5079810;28;20197;-77
2023/06/09 04:49:53;;;;;;;5.30;2.25;;;;;20.20;101378.00;;;;5087294;28;20218;-77
2023/06/09 04:52:20;;;;;;;4.90;2.22;;;;;20.20;101378.00;;;;5080983;28;20195;-76
2023/06/09 04:54:49;;;;;;;6.82;2.22;;;;;20.30;101379.00;;;;5085858;28;20230;-77
2023/06/09 04:57:19;;;;;;;5.10;2.60;;;;;20.30;101389.00;;;;5086885;28;20210;-77
2023/06/09 04:59:46;;;;;;;5.85;2.40;;;;;20.40;101395.00;;;;5080727;28;20281;-78
2023/06/09 05:02:14;;;;;;;4.90;2.50;;;;;20.40;101394.00;;;;5083160;28;20206;-77
2023/06/09 05:04:41;;;;;;;5.03;2.60;;;;;20.50;101394.00;;;;5086896;28;20201;-77
2023/06/09 05:07:10;;;;;;;8.32;2.40;;;;;20.50;101393.00;;;;5085488;28;20202;-77
2023/06/09 05:09:37;;;;;;;3.15;2.33;;;;;20.60;101394.00;;;;5081538;28;20203;-77
2023/06/09 05:12:06;;;;;;;5.55;2.55;;;;;20.60;101397.00;;;;5083088;28;20583;-77
2023/06/09 05:14:33;;;;;;;4.32;2.33;;;;;20.70;101389.00;;;;5085225;28;20218;-76
2023/06/09 05:17:02;;;;;;;6.97;2.95;;;;;20.70;101396.00;;;;5080805;28;20202;-77
2023/06/09 05:19:29;;;;;;;9.25;3.30;;;;;20.80;101397.00;;;;5073766;28;20213;-76
2023/06/09 05:21:57;;;;;;;6.95;2.80;;;;;20.80;101397.00;;;;5087832;28;22227;-77
2023/06/09 05:24:26;;;;;;;5.05;2.70;;;;;20.90;101399.00;;;;5089493;28;20239;-77
2023/06/09 05:26:53;;;;;;;6.70;2.80;;;;;20.90;101406.00;;;;5087953;28;20228;-77
2023/06/09 05:29:20;;;;;;;5.93;2.70;;;;;21.00;101399.00;;;;5087073;28;20228;-77
2023/06/09 05:31:47;;;;;;;11.13;3.33;;;;;21.10;101400.00;;;;5089726;28;20198;-77
2023/06/09 05:34:15;;;;;;;7.72;3.17;;;;;21.10;101401.00;;;;5088749;28;20226;-77
2023/06/09 05:36:42;;;;;;;5.43;2.75;;;;;21.20;101400.00;;;;5088940;28;20194;-77
2023/06/09 05:39:10;;;;;;;8.18;3.20;;;;;21.30;101403.00;;;;5088555;28;20191;-76
2023/06/09 05:41:40;;;;;;;4.57;2.97;;;;;21.30;101405.00;;;;5082973;28;20230;-77
2023/06/09 05:44:08;;;;;;;6.57;2.75;;;;;21.40;101396.00;;;;5088947;28;20194;-77
2023/06/09 05:46:38;;;;;;;8.45;3.40;;;;;21.50;101399.00;;;;5088492;28;20202;-77
2023/06/09 05:49:05;;;;;;;6.25;2.97;;;;;21.60;101392.00;;;;5089185;28;20201;-77
2023/06/09 05:51:35;;;;;;;5.10;3.13;;;;;21.70;101396.00;;;;5089437;28;20216;-77
2023/06/09 05:54:02;;;;;;;6.35;3.25;;;;;21.70;101399.00;;;;5088884;28;20191;-77
2023/06/09 05:56:30;;;;;;;6.82;3.53;;;;;21.80;101389.00;;;;5089394;28;20207;-77
2023/06/09 05:59:02;;;;;;;8.80;3.65;;;;;21.80;101398.00;;;;5088851;28;20211;-77
2023/06/09 06:01:30;;;;;;;5.20;3.42;;;;;22.00;101397.00;;;;5089244;28;20217;-77
2023/06/09 06:03:57;;;;;;;6.97;4.05;;;;;22.00;101390.00;;;;5089762;28;20213;-77
2023/06/09 06:06:25;;;;;;;5.97;3.50;;;;;22.10;101393.00;;;;5086577;28;20244;-77
2023/06/09 06:08:52;;;;;;;5.93;3.10;;;;;22.20;101389.00;;;;5086147;28;20202;-77
2023/06/09 06:11:20;;;;;;;6.18;3.25;;;;;22.20;101390.00;;;;5080507;28;20593;-77
2023/06/09 06:13:47;;;;;;;7.20;3.95;;;;;22.30;101395.00;;;;5080892;28;20195;-77
2023/06/09 06:16:16;;;;;;;6.60;3.08;;;;;22.40;101394.00;;;;5081897;28;20240;-77
2023/06/09 06:18:44;;;;;;;10.88;3.50;;;;;22.50;101401.00;;;;5078651;28;20202;-77
2023/06/09 06:21:12;;;;;;;7.13;4.18;;;;;22.60;101404.00;;;;5080951;28;20203;-76
2023/06/09 06:23:39;;;;;;;6.15;3.58;;;;;22.70;101402.00;;;;5078204;28;20194;-78
2023/06/09 06:26:07;;;;;;;4.65;3.40;;;;;22.70;101399.00;;;;5080534;28;20693;-77
2023/06/09 06:28:34;;;;;;;6.07;4.22;;;;;22.80;101401.00;;;;5076754;28;20198;-78
2023/06/09 06:31:02;;;;;;;5.55;3.10;;;;;22.90;101400.00;;;;5078288;28;20206;-77
2023/06/09 06:33:31;;;;;;;6.47;3.50;;;;;22.90;101397.00;;;;5080916;28;20654;-78
2023/06/09 06:35:59;;;;;;;4.80;2.90;;;;;23.00;101401.00;;;;5079219;28;20226;-78
2023/06/09 06:38:26;;;;;;;7.30;3.40;;;;;23.10;101402.00;;;;5076220;28;20202;-78
2023/06/09 06:40:53;;;;;;;5.05;3.65;;;;;23.20;101403.00;;;;5080442;28;20205;-78
2023/06/09 06:43:21;;;;;;;5.85;3.28;;;;;23.30;101407.00;;;;5078083;28;20194;-78
2023/06/09 06:45:48;;;;;;;7.97;3.45;;;;;23.40;101396.00;;;;5082840;28;20660;-79
2023/06/09 06:48:16;;;;;;;5.07;3.75;;;;;23.50;101400.00;;;;5089376;28;20201;-79
2023/06/09 06:50:45;;;;;;;6.30;3.53;;;;;23.60;101412.00;;;;5083894;28;20190;-78
2023/06/09 06:53:12;;;;;;;9.27;3.88;;;;;23.70;101403.00;;;;5088725;28;20210;-78
2023/06/09 06:55:40;;;;;;;7.35;3.83;;;;;23.80;101410.00;;;;5087891;28;20430;-79
2023/06/09 06:58:07;;;;;;;7.78;3.65;;;;;23.90;101402.00;;;;5086591;28;20213;-78
2023/06/09 07:00:35;;;;;;;5.28;3.55;;;;;24.00;101406.00;;;;5080860;28;20225;-79
2023/06/09 07:03:02;;;;;;;7.80;4.15;;;;;24.20;101405.00;;;;5081979;28;20206;-80
2023/06/09 07:05:30;;;;;;;5.53;3.65;;;;;24.30;101402.00;;;;5081727;28;20281;-79
2023/06/09 07:07:58;;;;;;;6.70;3.80;;;;;24.40;101398.00;;;;5083890;28;20577;-79
2023/06/09 07:10:26;;;;;;;7.78;4.03;;;;;24.50;101409.00;;;;5084491;28;20202;-79
2023/06/09 07:12:53;;;;;;;7.18;4.15;;;;;24.60;101402.00;;;;5085067;28;20191;-79
2023/06/09 07:15:20;;;;;;;6.40;3.85;;;;;24.70;101411.00;;;;5084367;28;20676;-78
2023/06/09 07:17:48;;;;;;;5.60;3.85;;;;;24.80;101406.00;;;;5083090;28;20214;-78
2023/06/09 07:20:15;;;;;;;11.85;4.38;;;;;24.90;101400.00;;;;5080243;28;20195;-78
2023/06/09 07:22:46;;;;;;;6.18;4.25;;;;;25.00;101404.00;;;;5086373;28;20203;-78
2023/06/09 07:25:16;;;;;;;7.90;4.05;;;;;25.10;101401.00;;;;5078810;28;20206;-79
2023/06/09 07:27:44;;;;;;;7.88;4.13;;;;;25.20;101404.00;;;;5082080;28;20219;-78
2023/06/09 07:30:12;;;;;;;7.15;4.32;;;;;25.30;101410.00;;;;5084843;28;20208;-78
2023/06/09 07:32:40;;;;;;;6.20;4.28;;;;;25.40;101413.00;;;;5084151;28;20289;-78
2023/06/09 07:35:07;;;;;;;7.88;3.92;;;;;25.60;101411.00;;;;5083480;28;20272;-80
2023/06/09 07:37:36;;;;;;;7.20;4.05;;;;;25.70;101412.00;;;;5076321;28;20191;-79
2023/06/09 07:40:05;;;;;;;6.03;3.80;;;;;25.80;101414.00;;;;5070824;28;20273;-79
2023/06/09 07:42:34;;;;;;;7.60;4.00;;;;;25.90;101412.00;;;;5079961;28;20195;-79
2023/06/09 07:45:01;;;;;;;15.32;4.07;;;;;26.00;101416.00;;;;5070570;28;20199;-78
2023/06/09 07:47:29;;;;;;;10.65;4.55;;;;;26.10;101417.00;;;;5074076;28;20206;-78
2023/06/09 07:49:56;;;;;;;7.45;4.82;;;;;26.20;101410.00;;;;5079406;28;20272;-77
2023/06/09 07:52:23;;;;;;;6.18;4.22;;;;;26.30;101418.00;;;;5086721;28;20199;-77
2023/06/09 07:54:51;;;;;;;9.60;4.22;;;;;26.40;101415.00;;;;5079431;28;20652;-78
2023/06/09 07:57:18;;;;;;;6.90;4.28;;;;;26.60;101417.00;;;;5081760;28;20194;-78
2023/06/09 07:59:49;;;;;;;6.32;4.13;;;;;26.70;101420.00;;;;5082484;28;20198;-78
2023/06/09 08:02:16;;;;;;;6.93;4.20;;;;;26.80;101419.00;;;;5086033;28;20617;-76
2023/06/09 08:04:43;;;;;;;6.75;3.92;;;;;27.00;101429.00;;;;5081395;28;20202;-77
2023/06/09 08:07:11;;;;;;;7.35;4.35;;;;;27.10;101413.00;;;;5084919;28;20205;-78
2023/06/09 08:09:38;;;;;;;8.52;4.47;;;;;27.20;101417.00;;;;5084932;28;20578;-77
2023/06/09 08:12:07;;;;;;;13.25;4.90;;;;;27.30;101417.00;;;;5085983;28;20521;-78
2023/06/09 08:14:34;;;;;;;7.95;5.25;;;;;27.40;101407.00;;;;5081307;28;20202;-77
2023/06/09 08:17:03;;;;;;;6.75;4.35;;;;;27.50;101414.00;;;;5086020;28;20229;-77
2023/06/09 08:19:31;;;;;;;6.38;4.45;;;;;27.60;101418.00;;;;5085297;28;20213;-78
2023/06/09 08:22:01;;;;;;;7.10;4.00;;;;;27.80;101415.00;;;;5086843;28;20198;-77
2023/06/09 08:24:28;;;;;;;7.13;4.50;;;;;27.90;101413.00;;;;5085822;28;20583;-77
2023/06/09 08:26:56;;;;;;;5.30;3.92;;;;;28.00;101410.00;;;;5084052;28;20198;-77
2023/06/09 08:29:24;;;;;;;4.65;4.10;;;;;28.10;101404.00;;;;5086047;28;20190;-78
2023/06/09 08:31:52;;;;;;;7.85;4.10;;;;;28.20;101403.00;;;;5075208;28;20201;-77
2023/06/09 08:34:20;;;;;;;6.95;4.40;;;;;28.30;101397.00;;;;5081377;28;20229;-77
2023/06/09 08:36:48;;;;;;;5.85;3.97;;;;;28.50;101399.00;;;;5083769;28;20224;-77
2023/06/09 08:39:15;;;;;;;7.55;4.63;;;;;28.60;101391.00;;;;5081917;28;20201;-77
2023/06/09 08:41:47;;;;;;;5.85;4.05;;;;;28.70;101390.00;;;;5082640;28;20227;-77
2023/06/09 08:44:17;;;;;;;4.80;4.03;;;;;28.80;101393.00;;;;5084828;28;20190;-79
2023/06/09 08:46:47;;;;;;;6.18;4.07;;;;;28.90;101391.00;;;;5072517;28;20314;-77
2023/06/09 08:49:17;;;;;;;8.52;4.35;;;;;29.10;101400.00;;;;5084199;28;20190;-78
2023/06/09 08:51:46;;;;;;;5.72;3.92;;;;;29.20;101398.00;;;;5083019;28;20214;-78
2023/06/09 08:54:17;;;;;;;6.82;5.03;;;;;29.30;101389.00;;;;5082875;28;20202;-77
2023/06/09 08:56:47;;;;;;;7.13;4.30;;;;;29.40;101392.00;;;;5085698;28;20222;-78
2023/06/09 08:59:16;;;;;;;3.50;3.03;;;;;29.60;101395.00;;;;5088449;28;20200;-77
2023/06/09 09:01:43;;;;;;;5.63;4.15;;;;;29.70;101403.00;;;;5086026;28;20217;-78
2023/06/09 09:04:11;;;;;;;7.35;4.38;;;;;29.90;101397.00;;;;5084956;28;20202;-79
2023/06/09 09:06:39;;;;;;;4.65;3.95;;;;;30.00;101393.00;;;;5087362;28;20203;-78
2023/06/09 09:09:08;;;;;;;5.57;4.65;;;;;30.10;101389.00;;;;5077103;28;20580;-76
2023/06/09 09:11:36;;;;;;;5.93;4.43;;;;;30.30;101392.00;;;;5088309;28;20194;-76
2023/06/09 09:14:10;;;;;;;5.28;3.55;;;;;30.40;101391.00;;;;5086424;28;20202;-78
2023/06/09 09:16:37;;;;;;;6.38;3.40;;;;;30.60;101390.00;;;;5083798;28;20278;-77
2023/06/09 09:19:05;;;;;;;4.78;3.67;;;;;30.70;101384.00;;;;5085654;28;20301;-78
2023/06/09 09:21:37;;;;;;;8.43;3.80;;;;;30.80;101387.00;;;;5087492;28;20198;-78
2023/06/09 09:24:07;;;;;;;7.50;4.18;;;;;31.00;101385.00;;;;5088177;28;20240;-78
2023/06/09 09:26:35;;;;;;;4.53;4.13;;;;;31.20;101383.00;;;;5082189;28;20206;-77
2023/06/09 09:29:06;;;;;;;7.80;4.32;;;;;31.30;101386.00;;;;5087489;28;20202;-77
2023/06/09 09:31:36;;;;;;;6.53;4.25;;;;;31.50;101386.00;;;;5086806;28;20201;-77
2023/06/09 09:34:03;;;;;;;7.78;4.70;;;;;31.60;101393.00;;;;5087010;28;20703;-77
2023/06/09 09:36:33;;;;;;;6.63;5.10;;;;;31.80;101390.00;;;;5090203;28;20610;-77
2023/06/09 09:39:05;;;;;;;4.93;3.88;;;;;31.90;101381.00;;;;5083389;28;20205;-78
2023/06/09 09:41:34;;;;;;;6.45;4.20;;;;;32.00;101383.00;;;;5087258;28;20190;-78
2023/06/09 09:44:01;;;;;;;4.57;3.95;;;;;32.10;101378.00;;;;5088283;28;21650;-77
2023/06/09 09:46:35;;;;;;;4.90;4.07;;;;;32.30;101386.00;;;;5087190;28;20706;-78
2023/06/09 09:49:02;;;;;;;4.65;4.15;;;;;32.40;101383.00;;;;5079564;28;20280;-80
2023/06/09 09:51:31;;;;;;;6.50;3.55;;;;;32.50;101375.00;;;;5086066;28;20197;-78
2023/06/09 09:54:00;;;;;;;5.22;4.07;;;;;32.60;101378.00;;;;5084898;28;20193;-78
2023/06/09 09:56:28;;;;;;;4.35;3.67;;;;;32.70;101380.00;;;;5087430;28;20210;-78
2023/06/09 09:58:57;;;;;;;5.90;4.30;;;;;32.80;101377.00;;;;5081428;28;20210;-78
2023/06/09 10:01:26;;;;;;;5.32;4.43;;;;;33.00;101384.00;;;;5082997;28;20214;-77
2023/06/09 10:03:54;;;;;;;4.32;3.92;;;;;33.10;101381.00;;;;5081104;28;20304;-78
2023/06/09 10:06:27;;;;;;;4.55;3.88;;;;;33.10;101382.00;;;;5086495;28;20247;-78
2023/06/09 10:08:57;;;;;;;4.65;4.22;;;;;33.20;101372.00;;;;5086278;28;21080;-78
2023/06/09 10:11:30;;;;;;;3.83;3.42;;;;;33.30;101374.00;;;;5088119;28;20231;-78
2023/06/09 10:14:00;;;;;;;4.03;3.63;;;;;33.30;101370.00;;;;5084111;28;20216;-78
2023/06/09 10:16:29;;;;;;;4.45;4.05;;;;;33.50;101372.00;;;;5088719;28;20606;-78
2023/06/09 10:18:56;;;;;;;4.47;3.42;;;;;33.50;101367.00;;;;5085318;28;20851;-78
2023/06/09 10:21:24;;;;;;;7.55;4.28;;;;;33.60;101367.00;;;;5088874;28;20668;-78
2023/06/09 10:23:52;;;;;;;4.38;3.97;;;;;33.70;101370.00;;;;5086984;28;20717;-79
2023/06/09 10:26:20;;;;;;;3.75;3.38;;;;;33.80;101366.00;;;;5088155;28;20289;-79
2023/06/09 10:28:47;;;;;;;4.90;3.42;;;;;33.90;101372.00;;;;5083525;28;20216;-79
2023/06/09 10:31:19;;;;;;;4.28;3.47;;;;;33.90;101370.00;;;;5089384;28;20197;-80
2023/06/09 10:33:47;;;;;;;3.70;3.40;;;;;34.00;101371.00;;;;5089411;28;20707;-80
2023/06/09 10:36:14;;;;;;;3.60;3.30;;;;;34.10;101368.00;;;;5090336;28;20213;-79
2023/06/09 10:38:43;;;;;;;4.57;4.00;;;;;34.10;101367.00;;;;5089404;28;20213;-79
2023/06/09 10:41:12;;;;;;;3.60;3.30;;;;;34.20;101358.00;;;;5088219;28;20205;-79
2023/06/09 10:43:58;;;;;;;3.88;3.58;;;;;34.20;101364.00;;;;5086505;28;20201;-78
2023/06/09 10:46:46;;;;;;;4.35;3.97;;;;;34.20;101360.00;;;;5087827;28;20761;-81
2023/06/09 10:49:38;;;;;;;4.43;4.03;;;;;34.20;101362.00;;;;5087248;28;20194;-80
2023/06/09 10:52:07;;;;;;;4.18;3.67;;;;;34.40;101366.00;;;;5086780;28;20704;-80
2023/06/09 10:54:36;;;;;;;4.20;3.70;;;;;34.50;101363.00;;;;5084869;28;20671;-80
2023/06/09 10:57:06;;;;;;;4.93;3.97;;;;;34.50;101361.00;;;;5078928;28;20214;-81
2023/06/09 11:02:48;;;;;;;4.57;4.18;;;;;34.50;101351.00;;;;5082009;28;20202;-82
2023/06/09 11:05:17;;;;;;;8.10;4.13;;;;;34.60;101351.00;;;;5084280;28;22598;-81
2023/06/09 11:07:52;;;;;;;4.38;3.85;;;;;34.50;101343.00;;;;5080650;28;20208;-82
2023/06/09 11:10:29;;;;;;;4.35;3.92;;;;;34.50;101341.00;;;;5081505;28;20204;-82
2023/06/09 11:12:57;;;;;;;5.00;4.13;;;;;34.70;101340.00;;;;5080454;28;20608;-82
2023/06/09 11:15:45;;;;;;;4.00;3.60;;;;;34.70;101340.00;;;;5084883;28;21058;-81
2023/06/09 11:18:18;;;;;;;4.10;3.72;;;;;34.70;101330.00;;;;5087317;28;20202;-81
2023/06/09 11:21:05;;;;;;;4.10;3.67;;;;;34.80;101317.00;;;;5087371;28;20205;-81
2023/06/09 11:23:32;;;;;;;4.43;4.07;;;;;34.80;101323.00;;;;5086327;28;20892;-82
2023/06/09 11:26:00;;;;;;;3.60;3.28;;;;;34.80;101328.00;;;;5087516;28;20206;-82
2023/06/09 11:28:27;;;;;;;4.55;4.15;;;;;34.90;101321.00;;;;5086406;28;20690;-83
2023/06/09 11:31:06;;;;;;;5.05;3.42;;;;;34.80;101314.00;;;;5082912;28;20672;-82
2023/06/09 11:33:49;;;;;;;4.25;3.83;;;;;34.80;101306.00;;;;5079285;28;20230;-81
2023/06/09 11:36:21;;;;;;;6.72;3.80;;;;;34.90;101306.00;;;;5079974;28;20709;-81
2023/06/09 11:38:50;;;;;;;4.57;3.47;;;;;34.90;101305.00;;;;5073385;28;20683;-83
2023/06/09 11:41:24;;;;;;;5.63;4.00;;;;;34.90;101301.00;;;;5074609;28;20193;-82
2023/06/09 11:43:53;;;;;;;4.82;3.70;;;;;34.90;101301.00;;;;5083233;28;20239;-80
2023/06/09 11:46:22;;;;;;;5.50;4.00;;;;;34.90;101299.00;;;;5088092;28;20194;-84
2023/06/09 11:49:08;;;;;;;4.20;3.80;;;;;34.80;101296.00;;;;5086189;28;20197;-82
2023/06/09 11:52:08;;;;;;;5.38;3.53;;;;;34.90;101299.00;;;;5087806;28;20212;-82
2023/06/09 11:54:46;;;;;;;4.55;3.78;;;;;34.90;101294.00;;;;5044963;28;20203;-83
2023/06/09 11:57:16;;;;;;;4.32;3.40;;;;;35.10;101309.00;;;;5045277;28;20716;-85
2023/06/09 11:59:44;;;;;;;5.10;3.60;;;;;35.10;101293.00;;;;5067041;28;20218;-84
2023/06/09 12:02:13;;;;;;;4.38;3.45;;;;;35.20;101304.00;;;;5088826;28;20228;-82
2023/06/09 12:04:42;;;;;;;4.32;3.08;;;;;35.20;101305.00;;;;5087287;28;20578;-85
2023/06/09 12:07:14;;;;;;;3.10;2.80;;;;;35.20;101299.00;;;;5088161;28;20196;-82
2023/06/09 12:09:43;;;;;;;4.10;3.20;;;;;35.30;101296.00;;;;5088662;28;20540;-83
2023/06/09 12:12:11;;;;;;;4.68;3.00;;;;;35.30;101296.00;;;;5088043;28;20285;-82
2023/06/09 12:14:39;;;;;;;5.28;3.10;;;;;35.30;101299.00;;;;5087574;28;20206;-85
2023/06/09 12:17:07;;;;;;;4.50;3.67;;;;;35.40;101294.00;;;;5086895;28;20312;-82
2023/06/09 12:19:34;;;;;;;4.30;3.53;;;;;35.40;101298.00;;;;5086802;28;20618;-82
2023/06/09 12:22:03;;;;;;;5.15;3.40;;;;;35.40;101294.00;;;;5085532;28;20201;-82